Terminal Aerodrome Forecast
Issued by NWS Topeka, KS

Home | Current Version | Previous Version | Graphics & Text | Print | Product List | Glossary On
Versions: 1 2 3 4 5 6 7 8 9 10 11 12 13 14 15
000
FTUS43 KTOP 221737
TAFTOP
TAF
KTOP 221737Z 2218/2318 18012G20KT P6SM FEW100
     FM230000 18008KT P6SM FEW250
     FM230500 26004KT P6SM VCTS BKN035CB
     FM230800 36009KT P6SM VCTS BKN035CB
     FM231200 36007KT P6SM BKN060
     FM231500 36010G18KT P6SM SCT100 SCT200=

USA.gov is the U.S. government's official web portal to all federal, state and local government web resources and services.